Time;durP1;ratioP1;P1;durP2;ratioP2;P2;SDS_P1;SDS_P2;PMS_P1;PMS_P2;Temp;Humidity;BMP_temperature;BMP_pressure;BME280_temperature;BME280_humidity;BME280_pressure;Samples;Min_cycle;Max_cycle;Signal;HPM_P1;HPM_P2
2022/08/25 00:00:16;;;;;;;12.15;3.72;;;;;;;21.96;49.25;100734.67;1735253;81;21226;-63
2022/08/25 00:02:46;;;;;;;9.65;3.83;;;;;;;21.91;49.47;100733.23;1764102;81;21095;-63
2022/08/25 00:05:17;;;;;;;7.65;3.55;;;;;;;21.87;49.70;100734.03;1764017;81;21070;-63
2022/08/25 00:07:46;;;;;;;13.28;4.10;;;;;;;21.85;49.78;100735.69;1684081;84;21159;-62
2022/08/25 00:10:17;;;;;;;9.73;3.55;;;;;;;21.82;50.04;100741.79;1752222;81;21038;-63
2022/08/25 00:12:46;;;;;;;12.82;3.60;;;;;;;21.79;50.16;100740.92;1684156;85;21036;-62
2022/08/25 00:15:16;;;;;;;13.90;3.52;;;;;;;21.77;50.31;100749.56;1762072;81;21092;-64
2022/08/25 00:17:45;;;;;;;11.53;3.60;;;;;;;21.76;50.37;100741.45;1681939;85;21079;-63
2022/08/25 00:20:14;;;;;;;11.25;3.75;;;;;;;21.74;50.42;100743.66;1751054;81;21040;-64
2022/08/25 00:22:44;;;;;;;11.95;3.75;;;;;;;21.69;50.69;100743.61;1761365;81;21055;-63
2022/08/25 00:25:14;;;;;;;11.75;4.03;;;;;;;21.65;50.76;100740.50;1761428;81;21459;-62
2022/08/25 00:27:46;;;;;;;10.20;3.65;;;;;;;21.59;50.98;100744.34;1681472;84;21047;-63
2022/08/25 00:30:16;;;;;;;10.82;3.85;;;;;;;21.57;51.01;100740.98;1761000;81;21068;-63
2022/08/25 00:32:47;;;;;;;6.95;3.55;;;;;;;21.54;51.25;100746.23;1761313;81;21015;-62
2022/08/25 00:35:19;;;;;;;11.53;3.92;;;;;;;21.45;51.41;100741.64;1761353;81;21016;-64
2022/08/25 00:37:48;;;;;;;11.85;4.10;;;;;;;21.38;51.63;100742.40;1740112;81;20965;-63
2022/08/25 00:40:17;;;;;;;9.08;3.55;;;;;;;21.35;51.77;100739.58;1718833;83;21510;-63
2022/08/25 00:42:47;;;;;;;11.30;3.52;;;;;;;21.35;51.77;100738.19;1718730;83;21021;-62
2022/08/25 00:45:17;;;;;;;8.25;3.87;;;;;;;21.33;51.81;100745.97;1718773;83;21036;-64
2022/08/25 00:47:46;;;;;;;9.05;3.83;;;;;;;21.29;52.02;100740.62;1740435;81;21031;-62
2022/08/25 00:50:16;;;;;;;16.65;4.10;;;;;;;21.27;52.21;100740.59;1710930;84;21463;-63
2022/08/25 00:52:51;;;;;;;7.85;3.90;;;;;;;21.21;52.44;100737.71;1710427;84;21061;-62
2022/08/25 00:55:31;;;;;;;10.25;3.62;;;;;;;21.19;52.51;100741.31;1748464;82;21027;-62
2022/08/25 00:58:12;;;;;;;11.33;3.60;;;;;;;21.17;52.47;100739.33;1748723;82;21447;-62
2022/08/25 01:00:43;;;;;;;7.67;3.62;;;;;;;21.13;52.44;100742.34;1748632;81;21454;-62
2022/08/25 01:03:13;;;;;;;6.95;3.12;;;;;;;21.05;52.75;100749.77;1748491;82;21075;-63
2022/08/25 01:05:45;;;;;;;10.78;3.60;;;;;;;20.99;52.90;100749.95;1748535;81;21984;-63
2022/08/25 01:08:15;;;;;;;7.62;3.65;;;;;;;20.98;52.79;100737.12;1749030;82;21434;-62
2022/08/25 01:10:45;;;;;;;13.15;3.70;;;;;;;20.96;52.62;100742.95;1752674;81;21490;-62
2022/08/25 01:13:22;;;;;;;6.97;3.60;;;;;;;20.93;52.63;100737.90;1681907;85;21027;-62
2022/08/25 01:15:54;;;;;;;9.85;3.80;;;;;;;20.91;52.68;100743.44;1757558;81;21058;-62
2022/08/25 01:18:23;;;;;;;7.25;3.52;;;;;;;20.90;52.75;100748.17;1700708;83;21058;-62
2022/08/25 01:20:56;;;;;;;7.87;3.55;;;;;;;20.90;52.87;100743.98;1682006;85;21004;-62
2022/08/25 01:23:26;;;;;;;8.30;3.95;;;;;;;20.92;52.65;100739.00;1681945;85;21787;-62
2022/08/25 01:26:10;;;;;;;9.75;3.65;;;;;;;20.91;52.64;100735.92;1743656;81;20983;-63
2022/08/25 01:29:19;;;;;;;9.18;3.80;;;;;;;20.93;52.73;100734.27;1761256;81;21444;-62
2022/08/25 01:31:11;;;;;;;9.98;4.10;;;;;;;20.95;52.78;100739.03;1682909;84;21087;-62
2022/08/25 01:33:43;;;;;;;9.50;3.70;;;;;;;20.98;52.81;100737.12;1761368;81;21427;-62
2022/08/25 01:36:16;;;;;;;12.15;4.17;;;;;;;20.99;52.85;100741.05;1761304;81;21522;-64
2022/08/25 01:38:47;;;;;;;11.70;3.83;;;;;;;20.99;52.93;100735.48;1714919;83;21059;-63
2022/08/25 01:41:26;;;;;;;8.13;3.90;;;;;;;21.01;53.01;100735.22;1719032;81;21506;-64
2022/08/25 01:43:57;;;;;;;8.25;4.05;;;;;;;21.00;53.07;100738.55;1681975;84;21028;-63
2022/08/25 01:46:27;;;;;;;12.05;3.75;;;;;;;20.97;53.25;100736.28;1748835;82;21015;-63
2022/08/25 01:48:57;;;;;;;13.15;3.90;;;;;;;20.95;53.44;100732.07;1748519;82;21035;-62
2022/08/25 01:51:29;;;;;;;7.28;3.90;;;;;;;20.92;53.54;100738.16;1748472;82;21015;-62
2022/08/25 01:53:59;;;;;;;12.13;4.30;;;;;;;20.88;53.69;100737.28;1748592;82;21023;-62
2022/08/25 01:56:28;;;;;;;11.25;3.85;;;;;;;20.89;53.77;100733.40;1748524;82;21022;-63
2022/08/25 01:58:57;;;;;;;8.20;3.60;;;;;;;20.90;53.83;100737.02;1748494;82;21098;-64
2022/08/25 02:01:26;;;;;;;11.50;4.62;;;;;;;20.88;53.88;100739.23;1748513;82;21054;-62
2022/08/25 02:03:56;;;;;;;9.85;4.37;;;;;;;20.89;53.93;100740.91;1735610;82;21005;-62
2022/08/25 02:06:31;;;;;;;8.53;4.12;;;;;;;20.89;53.97;100738.13;1723498;81;20977;-63
2022/08/25 02:09:08;;;;;;;8.40;4.33;;;;;;;20.84;54.13;100739.45;1682053;85;21062;-63
2022/08/25 02:11:40;;;;;;;7.23;3.77;;;;;;;20.80;54.37;100742.42;1753150;81;20987;-62
2022/08/25 02:14:11;;;;;;;9.33;3.90;;;;;;;20.76;54.47;100746.82;1748769;81;21058;-62
2022/08/25 02:16:41;;;;;;;8.20;3.77;;;;;;;20.72;54.55;100740.08;1748574;82;21102;-64
2022/08/25 02:19:15;;;;;;;12.45;3.87;;;;;;;20.68;54.70;100747.27;1748595;82;21027;-62
2022/08/25 02:21:42;;;;;;;6.65;4.00;;;;;;;20.64;54.80;100749.71;1741752;81;21494;-63
2022/08/25 02:24:12;;;;;;;8.33;3.72;;;;;;;20.65;54.84;100743.05;1744727;81;21066;-62
2022/08/25 02:26:42;;;;;;;7.85;4.05;;;;;;;20.66;54.87;100746.67;1748505;82;21533;-63
2022/08/25 02:29:11;;;;;;;9.70;4.03;;;;;;;20.67;54.93;100753.93;1749317;81;21031;-63
2022/08/25 02:31:50;;;;;;;7.58;3.92;;;;;;;20.63;54.95;100752.20;1758494;81;21015;-63
2022/08/25 02:34:22;;;;;;;7.67;3.90;;;;;;;20.60;55.02;100754.66;1679080;85;21028;-63
2022/08/25 02:36:52;;;;;;;10.13;3.72;;;;;;;20.52;55.14;100744.25;1754507;81;21086;-63
2022/08/25 02:39:22;;;;;;;18.25;4.35;;;;;;;20.50;55.21;100743.66;1745578;82;21521;-63
2022/08/25 02:41:52;;;;;;;9.38;4.45;;;;;;;20.47;55.30;100736.37;1738852;82;21027;-62
2022/08/25 02:44:23;;;;;;;9.53;4.20;;;;;;;20.46;55.49;100743.88;1716015;83;21087;-62
2022/08/25 02:46:53;;;;;;;8.93;4.17;;;;;;;20.47;55.34;100739.99;1697794;83;21015;-63
2022/08/25 02:49:23;;;;;;;10.15;4.40;;;;;;;20.49;55.55;100743.91;1715999;83;21066;-63
2022/08/25 02:51:53;;;;;;;9.80;4.20;;;;;;;20.50;55.58;100749.23;1727946;81;20988;-63
2022/08/25 02:54:23;;;;;;;10.78;4.15;;;;;;;20.47;55.43;100734.42;1679089;85;21008;-64
2022/08/25 02:56:52;;;;;;;10.05;4.35;;;;;;;20.46;55.32;100738.31;1758441;81;21074;-63
2022/08/25 02:59:21;;;;;;;11.80;4.25;;;;;;;20.45;55.33;100747.76;1678968;85;21517;-63
2022/08/25 03:01:51;;;;;;;9.95;4.00;;;;;;;20.45;55.28;100745.52;1735199;81;21455;-63
2022/08/25 03:04:20;;;;;;;10.25;3.95;;;;;;;20.46;55.26;100743.88;1715912;83;21455;-64
2022/08/25 03:06:49;;;;;;;10.10;3.92;;;;;;;20.45;55.30;100747.76;1716820;81;21058;-63
2022/08/25 03:09:20;;;;;;;10.28;4.12;;;;;;;20.39;55.38;100747.38;1758443;81;20985;-63
2022/08/25 03:11:50;;;;;;;10.55;4.47;;;;;;;20.39;55.38;100750.17;1679067;85;21068;-62
2022/08/25 03:14:21;;;;;;;13.83;4.30;;;;;;;20.42;55.39;100746.88;1758605;81;21510;-63
2022/08/25 03:16:53;;;;;;;9.08;4.37;;;;;;;20.42;55.52;100753.83;1682766;85;21122;-62
2022/08/25 03:19:24;;;;;;;10.40;4.37;;;;;;;20.39;55.63;100743.21;1682390;85;21182;-63
2022/08/25 03:21:55;;;;;;;13.15;4.40;;;;;;;20.37;55.79;100752.33;1682475;85;21091;-62
2022/08/25 03:24:25;;;;;;;13.78;4.58;;;;;;;20.34;55.93;100745.87;1690783;85;21654;-62
2022/08/25 04:00:19;;;;;;;9.10;4.77;;;;;;;20.69;56.76;100737.81;1799926;79;28677;-63
2022/08/25 04:02:49;;;;;;;12.53;4.80;;;;;;;20.71;56.52;100746.75;1759146;81;21216;-63
2022/08/25 04:05:20;;;;;;;10.82;4.62;;;;;;;20.69;56.46;100740.04;1773533;80;21224;-63
2022/08/25 04:07:51;;;;;;;12.63;4.72;;;;;;;20.72;56.52;100733.11;1744808;81;21188;-63
2022/08/25 04:10:24;;;;;;;17.52;5.58;;;;;;;20.71;56.58;100738.39;1757336;81;21150;-62
2022/08/25 04:12:55;;;;;;;13.40;5.25;;;;;;;20.68;56.60;100742.53;1732495;83;21153;-62
2022/08/25 04:15:24;;;;;;;13.08;4.92;;;;;;;20.66;56.63;100732.20;1759357;81;21113;-63
2022/08/25 04:17:57;;;;;;;11.48;4.97;;;;;;;20.69;56.78;100741.98;1732876;81;21150;-63
2022/08/25 04:20:27;;;;;;;12.28;5.42;;;;;;;20.69;56.79;100726.67;1759295;81;21592;-63
2022/08/25 04:23:00;;;;;;;9.80;4.80;;;;;;;20.72;56.62;100728.94;1738368;82;21125;-63
2022/08/25 04:25:29;;;;;;;12.18;5.10;;;;;;;20.74;57.12;100733.70;1790267;80;21125;-62
2022/08/25 04:27:58;;;;;;;12.37;5.00;;;;;;;20.74;56.80;100732.31;1790084;80;21838;-62
2022/08/25 04:30:28;;;;;;;13.68;5.30;;;;;;;20.77;56.45;100728.46;1756345;81;21611;-64
2022/08/25 04:32:57;;;;;;;12.07;5.67;;;;;;;20.80;56.50;100718.75;1757780;81;21613;-63
2022/08/25 04:35:28;;;;;;;14.55;5.97;;;;;;;20.85;56.63;100721.63;1738436;81;21178;-63
2022/08/25 04:37:58;;;;;;;11.45;4.90;;;;;;;20.87;56.42;100718.88;1727847;83;21212;-64
2022/08/25 04:40:29;;;;;;;12.18;5.15;;;;;;;20.90;55.64;100717.52;1727918;83;21194;-62
2022/08/25 04:42:59;;;;;;;11.05;5.00;;;;;;;20.92;55.83;100719.50;1728347;81;21268;-63
2022/08/25 04:45:29;;;;;;;11.43;5.08;;;;;;;20.95;55.53;100711.17;1759127;80;21152;-63
2022/08/25 04:48:00;;;;;;;18.40;5.83;;;;;;;20.97;56.04;100708.42;1734502;81;21554;-63
2022/08/25 04:50:30;;;;;;;11.00;5.53;;;;;;;21.01;54.87;100708.20;1729312;81;21106;-62
2022/08/25 04:53:02;;;;;;;17.25;5.62;;;;;;;21.08;54.20;100710.23;1738227;82;21161;-64
2022/08/25 04:55:33;;;;;;;10.08;5.17;;;;;;;21.14;53.88;100714.77;1738206;81;21579;-64
2022/08/25 04:58:04;;;;;;;11.38;5.40;;;;;;;21.21;53.31;100709.84;1723133;82;21162;-62
2022/08/25 05:00:36;;;;;;;14.45;5.08;;;;;;;21.27;53.11;100707.98;1732252;81;21568;-63
2022/08/25 05:03:07;;;;;;;11.22;5.05;;;;;;;21.32;52.88;100712.23;1734610;81;21169;-62
2022/08/25 05:05:39;;;;;;;12.30;5.05;;;;;;;21.38;52.62;100707.55;1751483;82;21229;-62
2022/08/25 05:08:10;;;;;;;9.05;4.78;;;;;;;21.43;52.22;100704.27;1779714;80;21185;-63
2022/08/25 05:10:41;;;;;;;16.82;5.87;;;;;;;21.49;52.34;100704.64;1722525;82;21606;-64
2022/08/25 05:13:12;;;;;;;9.83;5.58;;;;;;;21.54;51.95;100701.06;1752223;82;21142;-62
2022/08/25 05:15:52;;;;;;;8.15;5.03;;;;;;;21.57;51.32;100708.06;1727210;81;21150;-63
2022/08/25 05:18:23;;;;;;;8.63;5.00;;;;;;;21.62;50.92;100694.17;1758711;81;21161;-62
2022/08/25 05:20:53;;;;;;;20.85;6.62;;;;;;;21.69;50.65;100700.38;1767930;81;21095;-63
2022/08/25 05:23:24;;;;;;;10.88;5.20;;;;;;;21.75;50.43;100702.11;1767044;80;21111;-62
2022/08/25 05:25:55;;;;;;;10.85;5.10;;;;;;;21.82;50.29;100698.55;1737680;81;21102;-63
2022/08/25 05:28:26;;;;;;;8.48;5.47;;;;;;;21.88;49.62;100692.46;1737810;81;21126;-65
2022/08/25 05:30:58;;;;;;;10.18;5.40;;;;;;;21.92;49.50;100692.22;1752197;81;21111;-62
2022/08/25 05:33:28;;;;;;;9.53;5.28;;;;;;;21.97;49.51;100699.23;1767999;81;21198;-64
2022/08/25 05:36:01;;;;;;;43.83;7.65;;;;;;;22.00;49.58;100700.95;1768230;80;21161;-64
2022/08/25 05:38:33;;;;;;;10.72;5.45;;;;;;;22.03;49.51;100696.26;1768055;80;21133;-63
2022/08/25 05:41:05;;;;;;;6.97;5.30;;;;;;;22.09;49.32;100699.94;1767759;80;21717;-63
2022/08/25 05:43:36;;;;;;;10.40;5.90;;;;;;;22.14;48.69;100697.22;1768116;80;21094;-63
2022/08/25 05:46:06;;;;;;;9.18;5.20;;;;;;;22.18;48.52;100695.57;1696304;81;21170;-63
2022/08/25 05:48:36;;;;;;;10.43;5.50;;;;;;;22.21;48.32;100695.03;1742553;81;21529;-65
2022/08/25 05:51:09;;;;;;;11.70;5.22;;;;;;;22.24;48.48;100688.92;1737331;81;21125;-64
2022/08/25 05:53:42;;;;;;;8.90;5.45;;;;;;;22.25;48.25;100687.80;1732374;81;21141;-64
2022/08/25 05:56:12;;;;;;;13.10;5.78;;;;;;;22.29;48.12;100690.91;1731828;82;21134;-64
2022/08/25 05:58:42;;;;;;;10.60;5.60;;;;;;;22.32;47.93;100685.63;1732042;81;21161;-64
2022/08/25 06:04:19;;;;;;;10.65;5.92;;;;;;;22.40;48.10;100690.70;1756595;81;21106;-63
2022/08/25 06:06:52;;;;;;;10.63;5.42;;;;;;;22.44;47.93;100687.66;1740790;81;21137;-64
2022/08/25 06:09:23;;;;;;;13.48;6.53;;;;;;;22.48;48.05;100686.56;1750444;81;21114;-63
2022/08/25 06:11:53;;;;;;;10.63;6.17;;;;;;;22.53;47.88;100687.16;1750661;81;21208;-64
2022/08/25 06:14:26;;;;;;;10.88;5.37;;;;;;;22.58;47.85;100689.97;1758758;81;21156;-63
2022/08/25 06:16:57;;;;;;;8.10;5.95;;;;;;;22.64;47.75;100687.50;1752963;81;21554;-64
2022/08/25 06:19:28;;;;;;;9.60;5.15;;;;;;;22.69;47.57;100686.12;1758279;81;21111;-65
2022/08/25 06:21:58;;;;;;;7.92;5.60;;;;;;;22.74;47.45;100683.36;1730017;83;21130;-64
2022/08/25 06:24:29;;;;;;;9.70;5.50;;;;;;;22.80;47.44;100684.27;1758386;81;21138;-65
2022/08/25 06:27:01;;;;;;;12.35;6.00;;;;;;;22.84;47.26;100684.87;1745311;81;21554;-64
2022/08/25 06:29:31;;;;;;;14.15;5.72;;;;;;;22.88;46.98;100684.61;1760090;81;21115;-66
2022/08/25 06:32:01;;;;;;;12.18;5.80;;;;;;;22.94;46.63;100689.11;1739746;81;21130;-64
2022/08/25 06:34:31;;;;;;;10.88;5.85;;;;;;;22.98;46.39;100688.84;1759189;80;21129;-62
2022/08/25 06:37:00;;;;;;;9.25;5.58;;;;;;;23.02;46.24;100701.72;1759929;81;21166;-64
2022/08/25 06:39:31;;;;;;;13.08;5.40;;;;;;;23.06;46.17;100700.06;1760070;81;21138;-63
2022/08/25 06:42:02;;;;;;;9.93;5.08;;;;;;;23.12;46.04;100692.53;1760187;81;21158;-63
2022/08/25 06:44:32;;;;;;;10.43;5.55;;;;;;;23.17;45.46;100696.75;1760357;81;21122;-63
2022/08/25 06:47:03;;;;;;;9.75;5.97;;;;;;;23.21;45.62;100694.53;1760386;81;21182;-63
2022/08/25 06:49:34;;;;;;;10.13;5.53;;;;;;;23.26;45.66;100699.30;1760335;81;21154;-63
2022/08/25 06:52:06;;;;;;;9.28;5.35;;;;;;;23.32;45.35;100699.59;1737552;81;21261;-63
2022/08/25 06:55:02;;;;;;;13.50;6.60;;;;;;;23.43;45.30;100701.34;1829380;77;28402;-63
2022/08/25 06:57:34;;;;;;;12.47;5.60;;;;;;;23.51;45.35;100700.80;1738142;81;21158;-63
2022/08/25 07:00:07;;;;;;;9.85;5.40;;;;;;;23.60;44.73;100699.73;1806918;79;21588;-64
2022/08/25 07:02:41;;;;;;;11.53;5.85;;;;;;;23.78;44.59;100699.20;1738428;82;21096;-63
2022/08/25 07:05:12;;;;;;;10.18;5.70;;;;;;;24.18;43.94;100691.95;1785273;79;21138;-63
2022/08/25 07:07:46;;;;;;;13.72;5.60;;;;;;;24.65;43.67;100698.08;1710006;82;21178;-64
2022/08/25 07:10:18;;;;;;;9.78;5.40;;;;;;;25.16;43.07;100691.51;1741151;82;21107;-64
2022/08/25 07:12:50;;;;;;;10.80;5.80;;;;;;;25.70;42.03;100688.72;1774382;79;21096;-65
2022/08/25 07:15:20;;;;;;;10.23;5.40;;;;;;;26.22;40.94;100683.83;1767881;79;21202;-67
2022/08/25 07:17:52;;;;;;;14.83;6.00;;;;;;;26.70;39.87;100689.59;1779966;80;21536;-65
2022/08/25 07:20:23;;;;;;;10.43;5.37;;;;;;;27.16;39.05;100680.63;1782623;80;21437;-66
2022/08/25 07:22:54;;;;;;;10.90;5.67;;;;;;;27.65;38.02;100685.89;1775235;80;21178;-63
2022/08/25 07:25:24;;;;;;;14.20;6.15;;;;;;;28.09;36.29;100681.26;1779783;80;21142;-67
2022/08/25 07:27:53;;;;;;;14.10;6.20;;;;;;;28.40;35.64;100683.56;1799818;79;21143;-66
2022/08/25 07:30:27;;;;;;;8.70;5.08;;;;;;;28.64;35.36;100675.80;1803185;79;21163;-66
2022/08/25 07:32:57;;;;;;;11.88;5.87;;;;;;;28.97;34.43;100674.33;1775915;80;21167;-67
2022/08/25 07:35:31;;;;;;;11.83;6.00;;;;;;;29.24;33.59;100667.24;1737593;82;21141;-65
2022/08/25 07:38:03;;;;;;;14.50;5.62;;;;;;;29.54;33.17;100662.11;1776044;80;21541;-66
2022/08/25 07:40:36;;;;;;;17.75;6.53;;;;;;;29.80;33.74;100661.75;1783345;79;21588;-66
2022/08/25 07:43:07;;;;;;;15.53;6.20;;;;;;;30.09;34.02;100660.53;1738076;82;21156;-66
2022/08/25 07:45:38;;;;;;;12.78;6.15;;;;;;;30.40;33.78;100664.80;1779161;79;21151;-66
2022/08/25 07:48:11;;;;;;;12.25;5.70;;;;;;;30.64;33.45;100660.23;1741334;81;21155;-68
2022/08/25 07:50:48;;;;;;;13.10;6.20;;;;;;;30.87;32.85;100654.75;1771175;79;21155;-66
2022/08/25 07:53:16;;;;;;;18.77;6.10;;;;;;;31.05;32.63;100650.81;1776836;79;21147;-67
2022/08/25 07:55:46;;;;;;;16.32;6.35;;;;;;;31.28;32.06;100653.02;1774800;81;21184;-67
2022/08/25 07:58:17;;;;;;;33.78;7.55;;;;;;;31.47;31.89;100659.20;1775277;81;21155;-65
2022/08/25 08:00:48;;;;;;;11.63;6.10;;;;;;;31.47;32.08;100645.03;1775307;79;21579;-65
2022/08/25 08:03:22;;;;;;;11.40;6.35;;;;;;;31.66;31.63;100646.13;1774474;79;21147;-66
2022/08/25 08:05:55;;;;;;;9.10;5.62;;;;;;;31.61;31.73;100652.54;1772793;81;21155;-63
2022/08/25 08:08:24;;;;;;;16.37;6.58;;;;;;;31.51;31.92;100641.78;1792927;79;21087;-64
2022/08/25 08:10:55;;;;;;;13.50;6.95;;;;;;;31.64;31.78;100641.95;1774321;80;21154;-65
2022/08/25 08:13:27;;;;;;;13.13;6.12;;;;;;;31.72;32.21;100640.57;1706949;83;21198;-63
2022/08/25 08:15:59;;;;;;;12.20;6.17;;;;;;;31.91;31.44;100635.17;1774535;80;21127;-63
2022/08/25 08:18:29;;;;;;;16.27;6.85;;;;;;;32.02;31.27;100631.66;1707965;83;21149;-63
2022/08/25 08:20:59;;;;;;;13.88;6.58;;;;;;;32.24;31.10;100628.35;1775463;80;21550;-63
2022/08/25 08:23:29;;;;;;;11.90;6.08;;;;;;;32.38;30.27;100629.00;1776208;80;21550;-64
2022/08/25 08:26:01;;;;;;;16.52;6.42;;;;;;;32.26;30.19;100624.63;1778430;80;21119;-63
2022/08/25 08:28:33;;;;;;;13.40;7.08;;;;;;;32.29;30.42;100623.95;1776394;79;21158;-63
2022/08/25 08:31:03;;;;;;;12.25;6.30;;;;;;;32.47;30.57;100624.97;1736996;82;21128;-64
2022/08/25 08:33:33;;;;;;;12.10;6.45;;;;;;;32.56;29.95;100621.29;1776806;80;21154;-65
2022/08/25 08:36:08;;;;;;;11.38;5.72;;;;;;;32.76;29.77;100617.11;1774642;80;21084;-63
2022/08/25 08:38:40;;;;;;;13.48;5.40;;;;;;;32.99;29.21;100613.42;1776361;79;21111;-64
2022/08/25 08:44:46;;;;;;;9.15;5.12;;;;;;;33.25;28.18;100608.18;1781295;79;21150;-64
2022/08/25 08:48:00;;;;;;;13.38;6.30;;;;;;;33.47;27.67;100609.30;1741834;82;21117;-64
2022/08/25 08:50:38;;;;;;;10.28;5.55;;;;;;;33.62;26.91;100602.98;1747156;81;21635;-63
2022/08/25 08:53:15;;;;;;;8.98;4.90;;;;;;;33.56;26.81;100597.27;1805903;79;21143;-63
2022/08/25 08:55:57;;;;;;;7.75;4.15;;;;;;;33.62;26.29;100594.45;1805517;79;21130;-64
2022/08/25 08:58:57;;;;;;;7.78;4.22;;;;;;;33.88;25.29;100593.43;1804692;79;21102;-62
2022/08/25 09:01:33;;;;;;;7.58;4.45;;;;;;;33.95;24.89;100590.84;1778877;80;21231;-63
2022/08/25 09:04:10;;;;;;;12.25;4.75;;;;;;;33.75;25.42;100585.98;1776023;79;21138;-62
2022/08/25 09:06:46;;;;;;;12.43;4.72;;;;;;;33.61;26.15;100589.95;1776720;79;21592;-63
2022/08/25 09:09:22;;;;;;;8.93;4.55;;;;;;;33.49;26.21;100582.78;1801417;79;21518;-62
2022/08/25 09:12:16;;;;;;;11.15;4.20;;;;;;;33.36;26.40;100586.15;1804108;79;21554;-63
2022/08/25 09:15:10;;;;;;;11.50;4.42;;;;;;;33.30;26.18;100583.86;1805895;79;21162;-61
2022/08/25 09:18:11;;;;;;;11.97;3.83;;;;;;;33.17;25.54;100582.09;1771018;79;21210;-62
2022/08/25 09:20:49;;;;;;;7.42;3.85;;;;;;;33.01;25.48;100578.41;1778588;79;21140;-63
2022/08/25 09:23:35;;;;;;;8.50;4.30;;;;;;;32.93;25.54;100578.47;1774235;80;21207;-64
2022/08/25 09:26:34;;;;;;;9.60;3.95;;;;;;;32.80;25.40;100571.88;1774885;80;21164;-61
2022/08/25 09:29:20;;;;;;;8.65;4.17;;;;;;;32.66;25.44;100584.02;1773598;80;21131;-62
2022/08/25 09:31:51;;;;;;;12.05;4.55;;;;;;;32.56;25.54;100573.06;1776963;80;21220;-62
2022/08/25 09:34:23;;;;;;;9.08;4.10;;;;;;;32.44;26.12;100575.17;1777504;80;21112;-63
2022/08/25 09:36:53;;;;;;;16.23;4.75;;;;;;;32.41;26.06;100568.17;1773680;80;21104;-63
2022/08/25 09:39:22;;;;;;;8.35;4.20;;;;;;;32.42;25.63;100569.83;1784967;79;21567;-63
2022/08/25 09:41:58;;;;;;;7.72;3.60;;;;;;;32.39;25.48;100566.27;1806639;79;21162;-62
2022/08/25 09:44:42;;;;;;;11.30;4.10;;;;;;;32.29;25.00;100569.47;1808821;79;21115;-63
2022/08/25 09:47:22;;;;;;;10.28;3.83;;;;;;;32.12;24.90;100563.83;1799851;79;21114;-62
2022/08/25 09:49:59;;;;;;;5.58;3.60;;;;;;;31.93;25.11;100551.46;1769282;80;21119;-64
2022/08/25 09:52:36;;;;;;;5.37;3.22;;;;;;;31.87;24.78;100549.98;1628993;88;21130;-63
2022/08/25 09:55:13;;;;;;;8.83;3.00;;;;;;;31.84;24.55;100548.63;1688746;85;21703;-63
2022/08/25 09:57:47;;;;;;;6.60;2.70;;;;;;;31.83;24.75;100544.70;1637093;86;21218;-63
2022/08/25 10:00:32;;;;;;;6.87;3.17;;;;;;;31.76;24.20;100535.30;1635997;86;21147;-64
2022/08/25 10:03:11;;;;;;;7.40;2.52;;;;;;;31.68;23.79;100546.63;1709424;83;21300;-63
2022/08/25 10:06:10;;;;;;;6.92;2.42;;;;;;;31.63;24.02;100548.22;1697009;83;21581;-65
2022/08/25 10:08:50;;;;;;;7.15;2.42;;;;;;;31.60;23.71;100536.97;1706734;83;21586;-62
2022/08/25 10:11:40;;;;;;;8.38;2.87;;;;;;;31.61;24.22;100527.88;1715215;83;21142;-62
2022/08/25 10:14:30;;;;;;;3.42;2.55;;;;;;;31.63;23.87;100526.38;1709112;83;21157;-63
2022/08/25 10:17:26;;;;;;;6.00;2.92;;;;;;;31.69;23.58;100522.20;1756603;79;21138;-61
2022/08/25 10:20:13;;;;;;;;;;;;;;;31.78;23.57;100515.96;1737298;82;21238;-63
2022/08/25 10:22:44;;;;;;;5.97;2.50;;;;;;;31.89;23.88;100528.39;1713944;82;20156;-64
2022/08/25 10:25:19;;;;;;;4.00;2.40;;;;;;;31.90;22.99;100520.96;1717354;83;21178;-63
2022/08/25 10:28:04;;;;;;;9.93;2.40;;;;;;;31.79;22.69;100516.20;1723173;82;21645;-63
2022/08/25 10:31:14;;;;;;;6.22;2.45;;;;;;;31.70;22.14;100521.06;1708682;83;21139;-63
2022/08/25 10:34:30;;;;;;;7.25;2.27;;;;;;;31.57;21.78;100514.14;1724615;82;21189;-63
2022/08/25 10:37:22;;;;;;;5.62;2.65;;;;;;;31.48;22.04;100512.16;1738366;82;21115;-61
2022/08/25 10:40:36;;;;;;;8.15;2.67;;;;;;;31.47;22.46;100500.58;1745110;82;21183;-62
2022/08/25 10:43:29;;;;;;;5.67;2.15;;;;;;;31.54;22.45;100507.15;1723566;82;21171;-63
2022/08/25 10:46:31;;;;;;;4.45;2.20;;;;;;;31.60;21.10;100508.64;1784355;80;21183;-61
2022/08/25 10:49:22;;;;;;;5.92;2.58;;;;;;;31.58;21.00;100488.31;1790454;80;21556;-62
2022/08/25 10:52:08;;;;;;;9.65;3.02;;;;;;;31.54;21.36;100491.56;1791360;79;21112;-61
2022/08/25 10:55:12;;;;;;;5.45;2.45;;;;;;;31.53;22.03;100494.16;1794324;79;21111;-63
2022/08/25 10:57:59;;;;;;;5.17;2.40;;;;;;;31.50;22.01;100499.08;1776888;79;21202;-62
2022/08/25 11:00:36;;;;;;;5.62;2.45;;;;;;;31.42;22.14;100492.26;1782317;79;21179;-62
2022/08/25 11:03:20;;;;;;;5.95;2.40;;;;;;;31.36;22.38;100486.52;1774400;80;21111;-63
2022/08/25 11:06:00;;;;;;;6.83;2.60;;;;;;;31.35;22.45;100485.44;1676858;85;21316;-62
2022/08/25 11:08:41;;;;;;;6.28;2.60;;;;;;;31.34;22.50;100482.36;1677667;85;21558;-62
2022/08/25 11:11:36;;;;;;;4.58;2.77;;;;;;;31.38;22.61;100477.69;1678352;85;21131;-62
2022/08/25 11:14:12;;;;;;;8.35;3.12;;;;;;;31.38;22.07;100481.34;1654535;86;21608;-60
2022/08/25 11:16:45;;;;;;;9.93;2.92;;;;;;;31.37;22.02;100473.19;1678185;85;22005;-63
2022/08/25 11:19:36;;;;;;;7.55;3.37;;;;;;;31.33;22.29;100484.94;1648030;87;21203;-64
2022/08/25 11:22:24;;;;;;;5.58;2.87;;;;;;;31.31;22.43;100481.02;1647362;86;21230;-64
2022/08/25 11:25:17;;;;;;;8.55;2.75;;;;;;;31.32;22.68;100476.20;1681144;84;21194;-63
2022/08/25 11:28:31;;;;;;;5.67;2.85;;;;;;;31.32;23.00;100472.78;1625793;87;21163;-64
2022/08/25 11:31:02;;;;;;;6.35;3.00;;;;;;;31.36;23.43;100463.03;1681284;85;21183;-63
2022/08/25 11:33:33;;;;;;;6.92;2.62;;;;;;;31.49;23.19;100457.75;1656578;85;21199;-62
2022/08/25 11:36:26;;;;;;;5.08;2.45;;;;;;;31.65;22.70;100460.30;1647927;86;21204;-64
2022/08/25 11:39:08;;;;;;;5.83;2.98;;;;;;;31.70;22.90;100455.89;1656435;86;21166;-62
2022/08/25 11:42:08;;;;;;;3.65;2.90;;;;;;;31.76;22.95;100463.63;1687445;84;21166;-62
2022/08/25 11:44:52;;;;;;;4.87;3.00;;;;;;;31.80;22.92;100461.20;1813579;78;21568;-62
2022/08/25 11:48:16;;;;;;;5.78;3.30;;;;;;;31.82;22.48;100453.19;1798839;79;21111;-63
2022/08/25 11:51:01;;;;;;;5.25;2.90;;;;;;;31.85;22.86;100452.51;1776210;79;21584;-63
2022/08/25 11:53:40;;;;;;;10.45;2.90;;;;;;;31.87;22.12;100438.61;1773496;80;21550;-62
2022/08/25 11:56:13;;;;;;;4.58;2.75;;;;;;;31.87;22.42;100444.28;1737228;82;21216;-63
2022/08/25 11:58:48;;;;;;;9.15;3.00;;;;;;;31.85;22.58;100448.84;1776979;79;21162;-62
2022/08/25 12:01:43;;;;;;;9.13;3.05;;;;;;;31.83;22.60;100440.68;1794755;79;21159;-62
2022/08/25 12:04:36;;;;;;;3.77;2.60;;;;;;;31.81;22.91;100445.86;1772348;79;21117;-63
2022/08/25 12:07:18;;;;;;;5.92;2.95;;;;;;;31.71;23.02;100443.39;1773294;81;21189;-62
2022/08/25 12:09:55;;;;;;;10.23;5.03;;;;;;;31.67;23.21;100441.55;1774404;81;21172;-62
2022/08/25 12:12:39;;;;;;;8.20;3.65;;;;;;;31.69;23.24;100441.45;1771694;80;21116;-62
2022/08/25 12:15:22;;;;;;;6.25;3.20;;;;;;;31.71;23.14;100441.14;1774162;80;21115;-63
2022/08/25 12:18:24;;;;;;;8.40;3.00;;;;;;;31.67;23.16;100447.21;1774015;80;21115;-64
2022/08/25 12:21:00;;;;;;;10.55;4.55;;;;;;;31.54;22.99;100425.83;1775648;80;21539;-64
2022/08/25 12:23:43;;;;;;;7.35;3.95;;;;;;;31.39;23.48;100434.04;1774085;80;21186;-63
2022/08/25 12:26:44;;;;;;;5.40;3.80;;;;;;;31.32;23.70;100435.14;1785872;79;21087;-65
2022/08/25 12:29:47;;;;;;;7.53;3.60;;;;;;;31.29;23.70;100430.98;1730652;82;21203;-64
2022/08/25 12:32:47;;;;;;;5.00;3.00;;;;;;;31.32;23.55;100422.39;1783267;79;21162;-64
2022/08/25 12:35:39;;;;;;;6.35;3.50;;;;;;;31.38;23.41;100421.88;1804130;79;21541;-64
2022/08/25 12:38:16;;;;;;;5.45;3.08;;;;;;;31.45;23.50;100414.28;1788122;79;21159;-64
2022/08/25 12:40:51;;;;;;;44.38;5.58;;;;;;;31.54;23.67;100421.58;1805981;79;21581;-64